Time;durP1;ratioP1;P1;durP2;ratioP2;P2;SDS_P1;SDS_P2;PMS_P1;PMS_P2;Temp;Humidity;BMP_temperature;BMP_pressure;BME280_temperature;BME280_humidity;BME280_pressure;Samples;Min_cycle;Max_cycle;Signal;HPM_P1;HPM_P2
2021/01/31 00:02:26;;;;;;;3.50;3.20;;;9.50;99.90;;;;;;4985410;28;20221;-38
2021/01/31 00:04:56;;;;;;;4.10;3.70;;;9.30;99.90;;;;;;4984676;28;20295;-38
2021/01/31 00:07:28;;;;;;;4.53;4.13;;;9.40;99.90;;;;;;4984742;28;20275;-38
2021/01/31 00:09:58;;;;;;;4.05;3.65;;;9.40;99.90;;;;;;4967734;28;20253;-39
2021/01/31 00:15:20;;;;;;;4.53;4.22;;;9.30;99.90;;;;;;4967365;28;20197;-39
2021/01/31 00:17:50;;;;;;;5.78;4.15;;;9.40;99.90;;;;;;4971808;28;20204;-40
2021/01/31 00:20:22;;;;;;;3.92;3.53;;;9.40;99.90;;;;;;4972321;28;20205;-38
2021/01/31 00:22:53;;;;;;;4.13;3.83;;;9.40;99.90;;;;;;4970485;28;20341;-38
2021/01/31 00:25:24;;;;;;;4.97;4.50;;;9.30;99.90;;;;;;4966472;28;20285;-38
2021/01/31 00:27:54;;;;;;;4.60;4.10;;;9.40;99.90;;;;;;4965249;28;20265;-38
2021/01/31 00:30:30;;;;;;;4.28;3.88;;;9.30;99.90;;;;;;4976616;28;20252;-38
2021/01/31 00:33:01;;;;;;;4.47;4.10;;;9.30;99.90;;;;;;4978447;28;20236;-38
2021/01/31 00:35:33;;;;;;;5.28;4.80;;;9.20;99.90;;;;;;4975118;28;20200;-38
2021/01/31 00:38:04;;;;;;;6.18;4.90;;;9.30;99.90;;;;;;4978454;28;20236;-38
2021/01/31 00:40:35;;;;;;;4.68;4.25;;;9.20;99.90;;;;;;4970210;28;20279;-37
2021/01/31 00:43:05;;;;;;;4.82;4.43;;;9.10;99.90;;;;;;4974992;28;20228;-38
2021/01/31 00:45:36;;;;;;;4.30;3.85;;;9.10;99.90;;;;;;4983223;28;20205;-38
2021/01/31 00:48:06;;;;;;;4.97;4.50;;;9.10;99.90;;;;;;4978908;28;20209;-38
2021/01/31 00:50:38;;;;;;;4.43;4.07;;;9.00;99.90;;;;;;4976858;28;20231;-38
2021/01/31 00:53:10;;;;;;;5.10;4.68;;;9.10;99.90;;;;;;4988954;28;20201;-39
2021/01/31 00:55:40;;;;;;;5.20;4.80;;;9.20;99.90;;;;;;4984607;28;20583;-39
2021/01/31 00:58:10;;;;;;;4.55;4.25;;;9.10;99.90;;;;;;4984428;28;20205;-38
2021/01/31 01:00:41;;;;;;;4.50;4.10;;;9.10;99.90;;;;;;4979738;28;20224;-39
2021/01/31 01:03:11;;;;;;;4.93;4.50;;;9.10;99.90;;;;;;4973338;28;20281;-38
2021/01/31 01:05:41;;;;;;;5.55;5.05;;;9.10;99.90;;;;;;4980370;28;20230;-38
2021/01/31 01:08:12;;;;;;;4.80;4.40;;;9.10;99.90;;;;;;4978677;28;20580;-38
2021/01/31 01:10:42;;;;;;;5.90;5.32;;;9.10;99.90;;;;;;4971837;28;20229;-38
2021/01/31 01:13:14;;;;;;;5.88;5.30;;;9.00;99.90;;;;;;4970547;28;20236;-37
2021/01/31 01:15:44;;;;;;;5.60;5.20;;;8.90;99.90;;;;;;4973401;28;20320;-36
2021/01/31 01:18:14;;;;;;;5.80;5.20;;;8.80;99.90;;;;;;4982352;28;20692;-37
2021/01/31 01:20:44;;;;;;;6.30;5.70;;;8.80;99.90;;;;;;4981414;28;20511;-37
2021/01/31 01:23:15;;;;;;;6.00;5.50;;;8.80;99.90;;;;;;4972563;28;20208;-36
2021/01/31 01:25:45;;;;;;;6.88;5.88;;;8.90;99.90;;;;;;4984012;28;20530;-37
2021/01/31 01:28:16;;;;;;;6.00;5.50;;;8.80;99.90;;;;;;4984332;28;20216;-37
2021/01/31 01:30:46;;;;;;;7.00;6.30;;;8.80;99.90;;;;;;4983191;28;20371;-38
2021/01/31 01:33:16;;;;;;;6.85;6.20;;;8.70;99.90;;;;;;4981712;28;20650;-38
2021/01/31 01:35:46;;;;;;;7.00;6.25;;;8.70;99.90;;;;;;4980729;28;20209;-38
2021/01/31 01:38:17;;;;;;;8.15;6.32;;;8.60;99.90;;;;;;4978912;28;20331;-38
2021/01/31 01:40:48;;;;;;;7.13;6.63;;;8.70;99.90;;;;;;4977004;28;20224;-37
2021/01/31 01:43:20;;;;;;;7.30;6.60;;;8.60;99.90;;;;;;4966065;28;20189;-37
2021/01/31 01:46:24;;;;;;;7.72;7.03;;;8.70;99.90;;;;;;4965483;28;20209;-37
2021/01/31 01:49:00;;;;;;;7.50;6.90;;;8.70;99.90;;;;;;4976229;28;20252;-38
2021/01/31 01:51:35;;;;;;;7.63;7.03;;;8.60;99.90;;;;;;4965697;28;20260;-38
2021/01/31 01:54:10;;;;;;;7.82;7.22;;;8.60;99.90;;;;;;4975645;28;20204;-37
2021/01/31 01:56:43;;;;;;;8.73;6.85;;;8.60;99.90;;;;;;4973724;28;20250;-37
2021/01/31 01:59:14;;;;;;;7.72;7.13;;;8.60;99.90;;;;;;4982353;28;20201;-37
2021/01/31 02:01:48;;;;;;;7.78;7.07;;;8.60;99.90;;;;;;4989458;28;20205;-37
2021/01/31 02:04:18;;;;;;;10.52;7.53;;;8.60;99.90;;;;;;4965338;28;20301;-37
2021/01/31 02:06:50;;;;;;;16.35;14.82;;;8.60;99.90;;;;;;4964544;28;20698;-38
2021/01/31 02:09:21;;;;;;;9.02;8.20;;;8.60;99.90;;;;;;4978558;28;20204;-37
2021/01/31 02:11:55;;;;;;;8.20;7.50;;;8.60;99.90;;;;;;4977151;28;20227;-37
2021/01/31 02:14:26;;;;;;;10.45;9.43;;;8.60;99.90;;;;;;4976525;28;20192;-35
2021/01/31 02:17:00;;;;;;;9.70;8.90;;;8.60;99.90;;;;;;4979921;28;20217;-36
2021/01/31 02:20:03;;;;;;;57.30;37.80;;;8.60;99.90;;;;;;4966780;28;20212;-36
2021/01/31 02:23:05;;;;;;;22.20;18.15;;;8.60;99.90;;;;;;4898039;29;20430;-36
2021/01/31 02:25:49;;;;;;;10.43;9.43;;;8.60;99.90;;;;;;4905630;29;20651;-36
2021/01/31 02:28:43;;;;;;;21.08;16.88;;;8.50;99.90;;;;;;4908501;29;20290;-35
2021/01/31 02:31:47;;;;;;;17.92;16.00;;;8.50;99.90;;;;;;4908162;29;20219;-36
2021/01/31 02:34:28;;;;;;;27.30;21.27;;;8.50;99.90;;;;;;4908566;29;20258;-35
2021/01/31 02:37:10;;;;;;;15.98;14.30;;;8.60;99.90;;;;;;4909128;29;20204;-35
2021/01/31 02:39:47;;;;;;;14.15;12.65;;;8.50;99.90;;;;;;4907896;29;20259;-36
2021/01/31 02:42:29;;;;;;;19.67;17.58;;;8.60;99.90;;;;;;4907687;29;20239;-35
2021/01/31 02:45:11;;;;;;;12.57;11.25;;;8.60;99.90;;;;;;4908259;29;20262;-35
2021/01/31 02:47:48;;;;;;;8.57;7.68;;;8.60;99.90;;;;;;4907295;29;20274;-36
2021/01/31 02:50:24;;;;;;;9.30;8.40;;;8.60;99.90;;;;;;4908676;29;20192;-35
2021/01/31 02:52:58;;;;;;;8.75;8.05;;;8.60;99.90;;;;;;4908203;29;20335;-37
2021/01/31 02:55:33;;;;;;;9.75;8.85;;;8.60;99.90;;;;;;4911358;29;20207;-36
2021/01/31 02:58:07;;;;;;;10.23;9.32;;;8.60;99.90;;;;;;4908788;28;20211;-35
2021/01/31 03:00:42;;;;;;;10.88;9.75;;;8.70;99.90;;;;;;4981605;28;20201;-36
2021/01/31 03:03:17;;;;;;;99.10;25.00;;;8.60;99.90;;;;;;4978280;28;20350;-35
2021/01/31 03:05:51;;;;;;;11.38;10.13;;;8.70;99.90;;;;;;4976501;28;20259;-36
2021/01/31 03:08:26;;;;;;;10.02;9.20;;;8.70;99.90;;;;;;4980936;28;20211;-35
2021/01/31 03:11:03;;;;;;;10.60;9.70;;;8.60;99.90;;;;;;4982142;28;20638;-35
2021/01/31 03:13:39;;;;;;;10.60;9.70;;;8.70;99.90;;;;;;4986307;28;20286;-35
2021/01/31 03:16:13;;;;;;;11.27;9.32;;;8.70;99.90;;;;;;4984978;28;20232;-36
2021/01/31 03:18:47;;;;;;;10.07;9.05;;;8.70;99.90;;;;;;4985266;28;20199;-35
2021/01/31 03:21:23;;;;;;;10.23;9.23;;;8.80;99.90;;;;;;4984887;28;20656;-35
2021/01/31 03:24:04;;;;;;;10.63;9.52;;;8.70;99.90;;;;;;4988747;28;20200;-35
2021/01/31 03:26:39;;;;;;;9.32;8.52;;;8.70;99.90;;;;;;4986443;28;20604;-36
2021/01/31 03:29:10;;;;;;;11.32;10.43;;;8.70;99.90;;;;;;4984855;28;20208;-36
2021/01/31 03:31:44;;;;;;;9.60;8.65;;;8.60;99.90;;;;;;4984478;28;20306;-35
2021/01/31 03:34:18;;;;;;;11.45;10.30;;;8.60;99.90;;;;;;4982196;28;20208;-36
2021/01/31 03:36:54;;;;;;;9.68;8.98;;;8.60;99.90;;;;;;4974827;28;20338;-35
2021/01/31 03:39:25;;;;;;;10.80;9.70;;;8.50;99.90;;;;;;4984485;28;20721;-35
2021/01/31 03:41:55;;;;;;;11.73;10.75;;;8.50;99.90;;;;;;4984316;28;20205;-35
2021/01/31 03:44:26;;;;;;;12.18;11.18;;;8.50;99.90;;;;;;4976634;28;20209;-35
2021/01/31 03:47:01;;;;;;;10.60;9.60;;;8.50;99.90;;;;;;4979401;28;20223;-35
2021/01/31 03:49:36;;;;;;;10.20;9.20;;;8.40;99.90;;;;;;4978342;28;20235;-35
2021/01/31 03:52:07;;;;;;;10.90;10.00;;;8.40;99.90;;;;;;4974581;28;20292;-35
2021/01/31 03:54:37;;;;;;;10.10;9.20;;;8.40;99.90;;;;;;4971958;28;20275;-35
2021/01/31 03:57:11;;;;;;;10.52;9.27;;;8.40;99.90;;;;;;4984752;28;20227;-35
2021/01/31 03:59:44;;;;;;;9.45;8.38;;;8.40;99.90;;;;;;4969438;28;20834;-35
2021/01/31 04:02:14;;;;;;;8.23;7.53;;;8.40;99.90;;;;;;4975747;28;20209;-36
2021/01/31 04:04:49;;;;;;;8.15;7.35;;;8.50;99.90;;;;;;4978341;28;20970;-37
2021/01/31 04:07:24;;;;;;;7.53;6.93;;;8.40;99.90;;;;;;4983880;28;20199;-36
2021/01/31 04:09:55;;;;;;;7.38;6.88;;;8.40;99.90;;;;;;4976126;28;20196;-36
2021/01/31 04:12:29;;;;;;;8.27;7.45;;;8.40;99.90;;;;;;4982642;28;20287;-35
2021/01/31 04:15:06;;;;;;;7.15;6.55;;;8.40;99.90;;;;;;4980001;28;20201;-36
2021/01/31 04:17:41;;;;;;;7.90;7.15;;;8.40;99.90;;;;;;4981218;28;20357;-36
2021/01/31 04:20:12;;;;;;;8.20;7.28;;;8.50;99.90;;;;;;4976648;28;20611;-36
2021/01/31 04:23:00;;;;;;;8.40;7.60;;;8.30;99.90;;;;;;4969584;28;20230;-36
2021/01/31 04:25:30;;;;;;;8.45;7.70;;;8.30;99.90;;;;;;4977724;28;20212;-35
2021/01/31 04:28:09;;;;;;;9.48;7.55;;;8.40;99.90;;;;;;4972067;28;20201;-37
2021/01/31 04:30:40;;;;;;;8.77;8.07;;;8.40;99.90;;;;;;4983189;28;20212;-37
2021/01/31 04:33:11;;;;;;;8.27;7.55;;;8.50;99.90;;;;;;4966081;28;20209;-37
2021/01/31 04:35:41;;;;;;;8.32;7.60;;;8.50;99.90;;;;;;4969046;28;20300;-37
2021/01/31 04:38:13;;;;;;;11.20;10.18;;;8.50;99.90;;;;;;4984109;28;20263;-36
2021/01/31 04:40:43;;;;;;;10.90;9.82;;;8.50;99.90;;;;;;4969237;28;20253;-37
2021/01/31 04:43:16;;;;;;;10.30;9.30;;;8.50;99.90;;;;;;4977352;28;20196;-37
2021/01/31 04:45:48;;;;;;;11.02;10.02;;;8.50;99.90;;;;;;4984884;28;20208;-37
2021/01/31 04:48:32;;;;;;;8.50;7.70;;;8.50;99.90;;;;;;4988922;28;20216;-37
2021/01/31 04:51:13;;;;;;;8.60;7.90;;;8.50;99.90;;;;;;4968155;28;20256;-37
2021/01/31 04:54:04;;;;;;;9.00;8.20;;;8.50;99.90;;;;;;4965333;28;20201;-37
2021/01/31 04:56:45;;;;;;;8.85;8.15;;;8.60;99.90;;;;;;4978122;28;20220;-37
2021/01/31 04:59:28;;;;;;;7.93;7.22;;;8.60;99.90;;;;;;4970633;28;20222;-37
2021/01/31 05:02:06;;;;;;;8.40;7.60;;;8.60;99.90;;;;;;4982167;28;20192;-36
2021/01/31 05:04:49;;;;;;;8.57;7.70;;;8.50;99.90;;;;;;4984261;28;20618;-37
2021/01/31 05:07:24;;;;;;;9.15;8.35;;;8.50;99.90;;;;;;4976223;28;20216;-37
2021/01/31 05:09:55;;;;;;;8.82;8.02;;;8.50;99.90;;;;;;4984364;28;20204;-37
2021/01/31 05:12:34;;;;;;;8.82;8.02;;;8.50;99.90;;;;;;4977354;28;20266;-37
2021/01/31 05:15:23;;;;;;;7.90;7.30;;;8.50;99.90;;;;;;4968599;28;20256;-37
2021/01/31 05:17:57;;;;;;;9.10;8.30;;;8.40;99.90;;;;;;4976220;28;20252;-37
2021/01/31 05:20:30;;;;;;;9.02;7.40;;;8.30;99.90;;;;;;4980077;28;20271;-37
2021/01/31 05:23:02;;;;;;;8.32;7.40;;;8.30;99.90;;;;;;4983588;28;20199;-37
2021/01/31 05:25:38;;;;;;;8.27;7.47;;;8.40;99.90;;;;;;4975770;28;20205;-37
2021/01/31 05:28:09;;;;;;;8.70;7.90;;;8.40;99.90;;;;;;4978805;28;20228;-37
2021/01/31 05:30:45;;;;;;;8.60;7.90;;;8.40;99.90;;;;;;4977691;28;20209;-36
2021/01/31 05:33:17;;;;;;;7.07;6.50;;;8.50;99.90;;;;;;4981053;28;20251;-36
2021/01/31 05:35:51;;;;;;;7.03;6.43;;;8.50;99.90;;;;;;4976442;28;20217;-36
2021/01/31 05:38:39;;;;;;;6.82;6.20;;;8.50;99.90;;;;;;4976713;28;20205;-36
2021/01/31 05:41:54;;;;;;;7.22;6.45;;;8.60;99.90;;;;;;4972326;28;20259;-37
2021/01/31 05:44:28;;;;;;;6.07;5.57;;;8.50;99.90;;;;;;4983412;28;20198;-37
2021/01/31 05:47:01;;;;;;;8.35;6.32;;;8.50;99.90;;;;;;4981388;28;20196;-37
2021/01/31 05:49:35;;;;;;;8.13;7.32;;;8.50;99.90;;;;;;4982070;28;20212;-36
2021/01/31 05:52:10;;;;;;;7.32;6.60;;;8.50;99.90;;;;;;4975720;28;20233;-37
2021/01/31 05:54:42;;;;;;;7.78;6.97;;;8.50;99.90;;;;;;4983469;28;20303;-37
2021/01/31 05:57:25;;;;;;;8.15;7.32;;;8.50;99.90;;;;;;4982633;28;20212;-37
2021/01/31 05:59:56;;;;;;;9.05;8.25;;;8.30;99.90;;;;;;4978802;28;20236;-36
2021/01/31 06:02:28;;;;;;;9.63;8.70;;;8.40;99.90;;;;;;4979817;28;20343;-36
2021/01/31 06:05:14;;;;;;;7.38;6.72;;;8.50;99.90;;;;;;4974811;28;20279;-36
2021/01/31 06:07:46;;;;;;;7.72;6.85;;;8.50;99.90;;;;;;4977029;28;20576;-37
2021/01/31 06:10:18;;;;;;;10.32;8.32;;;8.50;99.90;;;;;;4980744;28;20204;-36
2021/01/31 06:12:51;;;;;;;8.15;7.45;;;8.50;99.90;;;;;;4980840;28;20323;-36
2021/01/31 06:15:35;;;;;;;8.93;7.43;;;8.50;99.90;;;;;;4980019;28;20213;-36
2021/01/31 06:18:07;;;;;;;10.00;7.57;;;8.50;99.90;;;;;;4977644;28;20201;-36
2021/01/31 06:20:41;;;;;;;8.27;7.57;;;8.40;99.90;;;;;;4979148;28;20200;-36
2021/01/31 06:23:33;;;;;;;7.13;6.43;;;8.50;99.90;;;;;;4979097;28;20262;-36
2021/01/31 06:26:04;;;;;;;7.25;6.53;;;8.40;99.90;;;;;;4969817;28;20262;-36
2021/01/31 06:28:45;;;;;;;6.13;5.53;;;8.50;99.90;;;;;;4978798;28;20252;-36
2021/01/31 06:31:29;;;;;;;5.80;5.32;;;8.50;99.90;;;;;;4981572;28;20235;-36
2021/01/31 06:34:00;;;;;;;5.88;5.38;;;8.50;99.90;;;;;;4983543;28;20216;-36
2021/01/31 06:36:49;;;;;;;6.50;5.93;;;8.50;99.90;;;;;;4970386;28;20347;-36
2021/01/31 06:39:36;;;;;;;7.03;6.32;;;8.50;99.90;;;;;;4970198;28;20232;-37
2021/01/31 06:42:18;;;;;;;6.95;6.35;;;8.60;99.90;;;;;;4973263;28;20208;-36
2021/01/31 06:45:07;;;;;;;6.95;6.38;;;8.50;99.90;;;;;;4984032;28;20537;-37
2021/01/31 06:48:09;;;;;;;6.80;6.20;;;8.50;99.90;;;;;;4982481;28;20275;-37
2021/01/31 06:50:49;;;;;;;7.00;5.43;;;8.50;99.90;;;;;;4941931;28;20219;-35
2021/01/31 06:53:27;;;;;;;5.95;5.45;;;8.40;99.90;;;;;;4982766;28;20212;-36
2021/01/31 06:56:43;;;;;;;6.50;5.90;;;8.50;99.90;;;;;;4980065;28;20239;-37
2021/01/31 06:59:38;;;;;;;5.95;5.32;;;8.50;99.90;;;;;;4958259;28;20240;-37
2021/01/31 07:02:59;;;;;;;6.00;5.50;;;8.40;99.90;;;;;;4980619;28;20595;-36
2021/01/31 07:05:44;;;;;;;6.10;5.32;;;8.40;99.90;;;;;;4976395;28;20300;-36
2021/01/31 07:08:51;;;;;;;6.13;5.57;;;8.40;99.90;;;;;;4981955;28;20209;-37
2021/01/31 07:11:39;;;;;;;6.28;5.45;;;8.40;99.90;;;;;;4979587;28;20308;-36
2021/01/31 07:14:36;;;;;;;6.25;5.75;;;8.50;99.90;;;;;;4984011;28;20223;-36
2021/01/31 07:17:17;;;;;;;6.13;5.60;;;8.40;99.90;;;;;;4985378;28;20235;-36
2021/01/31 07:19:56;;;;;;;5.60;5.20;;;8.40;99.90;;;;;;4985963;28;20204;-36
2021/01/31 07:22:34;;;;;;;6.68;5.72;;;8.40;99.90;;;;;;4982594;28;20650;-36
2021/01/31 07:25:07;;;;;;;6.60;6.00;;;8.30;99.90;;;;;;4986389;28;20216;-36
2021/01/31 07:27:45;;;;;;;6.45;5.93;;;8.20;99.90;;;;;;4985203;28;20932;-37
2021/01/31 07:30:21;;;;;;;6.43;5.93;;;8.10;99.90;;;;;;4976139;28;20212;-36
2021/01/31 07:33:13;;;;;;;6.53;5.93;;;8.10;99.90;;;;;;4985389;28;20294;-36
2021/01/31 07:35:58;;;;;;;6.50;5.90;;;8.10;99.90;;;;;;4972704;28;20209;-36
2021/01/31 07:38:33;;;;;;;7.30;6.70;;;8.00;99.90;;;;;;4983800;28;20292;-36
2021/01/31 07:41:04;;;;;;;5.95;5.45;;;7.90;99.90;;;;;;4983718;28;20279;-36
2021/01/31 07:43:37;;;;;;;6.60;6.00;;;7.90;99.90;;;;;;4978772;28;20205;-36
2021/01/31 07:46:09;;;;;;;7.40;6.80;;;7.80;99.90;;;;;;4981979;28;20209;-37
2021/01/31 07:48:57;;;;;;;6.82;6.18;;;7.80;99.90;;;;;;4985124;28;20216;-37
2021/01/31 07:52:04;;;;;;;6.72;6.18;;;7.80;99.90;;;;;;4984819;28;20232;-36
2021/01/31 07:54:37;;;;;;;7.30;6.70;;;7.90;99.90;;;;;;4983479;28;20267;-36
2021/01/31 07:57:34;;;;;;;7.18;6.45;;;7.80;99.90;;;;;;4984384;28;20212;-37
2021/01/31 08:00:13;;;;;;;6.85;6.28;;;7.90;99.90;;;;;;4985430;28;20236;-36
2021/01/31 08:02:49;;;;;;;8.13;7.32;;;7.90;99.90;;;;;;4978075;28;20205;-37
2021/01/31 08:05:54;;;;;;;7.10;6.40;;;8.00;99.90;;;;;;4979106;28;20205;-36
2021/01/31 08:08:50;;;;;;;6.75;6.15;;;8.10;99.90;;;;;;4968694;28;20701;-37
2021/01/31 08:11:52;;;;;;;6.95;6.25;;;8.20;99.90;;;;;;4973959;28;20916;-37
2021/01/31 08:14:59;;;;;;;7.32;6.63;;;8.30;99.90;;;;;;4985194;28;20219;-36
2021/01/31 08:17:56;;;;;;;7.50;6.72;;;8.20;99.90;;;;;;4984384;28;20232;-36
2021/01/31 08:20:52;;;;;;;8.18;6.80;;;8.10;99.90;;;;;;4972838;28;20271;-36
2021/01/31 08:23:45;;;;;;;7.38;6.72;;;8.20;99.90;;;;;;4984639;28;20204;-36
2021/01/31 08:26:38;;;;;;;7.03;6.47;;;8.20;99.90;;;;;;4984280;28;20224;-39
2021/01/31 08:29:20;;;;;;;7.55;6.85;;;8.30;99.90;;;;;;4974599;28;20197;-36
2021/01/31 08:32:17;;;;;;;7.57;6.50;;;8.30;99.90;;;;;;4975244;28;21056;-36
2021/01/31 08:35:11;;;;;;;7.70;7.05;;;8.30;99.90;;;;;;4903565;29;20219;-36
2021/01/31 08:37:41;;;;;;;7.75;7.10;;;8.30;99.90;;;;;;4910036;29;20204;-36
2021/01/31 08:40:22;;;;;;;7.65;6.95;;;8.30;99.90;;;;;;4911874;29;20239;-36
2021/01/31 08:42:57;;;;;;;7.35;6.65;;;8.30;99.90;;;;;;4910812;29;20250;-36
2021/01/31 08:45:43;;;;;;;7.93;7.15;;;8.30;99.90;;;;;;4894580;29;20248;-36
2021/01/31 08:48:25;;;;;;;8.07;7.28;;;8.30;99.90;;;;;;4906331;29;20215;-36
2021/01/31 08:51:14;;;;;;;7.90;7.20;;;8.30;99.90;;;;;;4912617;29;20281;-36
2021/01/31 08:53:45;;;;;;;7.60;6.90;;;8.40;99.90;;;;;;4910693;29;20234;-38
2021/01/31 08:56:25;;;;;;;8.57;7.78;;;8.30;99.90;;;;;;4911631;29;20299;-36
2021/01/31 08:58:57;;;;;;;8.43;7.63;;;8.30;99.90;;;;;;4914226;29;20203;-36
2021/01/31 09:01:28;;;;;;;7.45;6.75;;;8.30;99.90;;;;;;4907149;29;20225;-36
2021/01/31 09:03:58;;;;;;;7.18;6.47;;;8.30;99.90;;;;;;4906298;29;20236;-36
2021/01/31 09:06:28;;;;;;;7.00;6.30;;;8.40;99.90;;;;;;4899408;29;20217;-36
2021/01/31 09:08:58;;;;;;;6.72;6.07;;;8.40;99.90;;;;;;4902873;29;20552;-36
2021/01/31 09:11:29;;;;;;;5.90;5.40;;;8.40;99.90;;;;;;4967095;28;20206;-37
2021/01/31 09:14:13;;;;;;;6.07;5.53;;;8.40;99.90;;;;;;4980702;28;20674;-36
2021/01/31 09:16:43;;;;;;;6.80;6.20;;;8.30;99.90;;;;;;4976909;28;20215;-37
2021/01/31 09:19:19;;;;;;;6.45;5.80;;;8.30;99.90;;;;;;4979350;28;20565;-36
2021/01/31 09:21:51;;;;;;;7.07;6.45;;;8.30;99.90;;;;;;4982036;28;20271;-37
2021/01/31 09:24:23;;;;;;;6.95;6.28;;;8.40;99.90;;;;;;4983705;28;20204;-37
2021/01/31 09:26:57;;;;;;;7.30;6.55;;;8.40;99.90;;;;;;4975089;28;21342;-37
2021/01/31 09:29:31;;;;;;;6.53;5.90;;;8.40;99.90;;;;;;4979320;28;20270;-37
2021/01/31 09:32:13;;;;;;;6.00;5.50;;;8.40;99.90;;;;;;4978961;28;20243;-36
2021/01/31 09:34:43;;;;;;;6.85;6.15;;;8.40;99.90;;;;;;4982703;28;20262;-37
2021/01/31 09:37:22;;;;;;;7.00;6.40;;;8.40;99.90;;;;;;4971917;28;20213;-37
2021/01/31 09:39:55;;;;;;;6.25;5.65;;;8.40;99.90;;;;;;4967690;28;20231;-38
2021/01/31 09:42:30;;;;;;;5.60;5.20;;;8.40;99.90;;;;;;4981162;28;20251;-37
2021/01/31 09:45:02;;;;;;;6.38;5.78;;;8.40;99.90;;;;;;4975844;28;20196;-37
2021/01/31 09:47:33;;;;;;;7.00;6.32;;;8.40;99.90;;;;;;4983105;28;20193;-37
2021/01/31 09:50:09;;;;;;;6.22;5.65;;;8.50;99.90;;;;;;4969006;28;20267;-37
2021/01/31 09:52:43;;;;;;;7.78;6.78;;;8.50;99.90;;;;;;4968292;28;20220;-37
2021/01/31 09:55:38;;;;;;;7.57;7.03;;;8.40;99.90;;;;;;4982627;28;20215;-36
2021/01/31 09:58:22;;;;;;;7.70;6.97;;;8.30;99.90;;;;;;4981943;28;20204;-37
2021/01/31 10:00:53;;;;;;;5.13;4.72;;;8.40;99.90;;;;;;4975600;28;20209;-36
2021/01/31 10:03:31;;;;;;;6.38;5.78;;;8.20;99.90;;;;;;4974665;28;20616;-37
2021/01/31 10:06:10;;;;;;;5.50;5.00;;;8.20;99.90;;;;;;4983056;28;20224;-37
2021/01/31 10:08:48;;;;;;;5.30;4.80;;;8.30;99.90;;;;;;4973348;28;20208;-37
2021/01/31 10:11:41;;;;;;;4.75;4.35;;;8.30;99.90;;;;;;4973354;28;20295;-37
2021/01/31 10:14:34;;;;;;;4.65;4.25;;;8.20;99.90;;;;;;4967215;28;20264;-38
2021/01/31 10:17:15;;;;;;;5.28;4.50;;;8.20;99.90;;;;;;4976726;28;20204;-37
2021/01/31 10:19:45;;;;;;;4.00;3.70;;;8.10;99.90;;;;;;4976174;28;20200;-37
2021/01/31 10:22:26;;;;;;;4.40;4.10;;;8.10;99.90;;;;;;4979508;28;20302;-36
2021/01/31 10:24:56;;;;;;;4.30;3.95;;;8.10;99.90;;;;;;4979549;28;20263;-37
2021/01/31 10:27:28;;;;;;;4.47;4.05;;;8.10;99.90;;;;;;4973095;28;20205;-37
2021/01/31 10:30:22;;;;;;;4.35;3.95;;;8.10;99.90;;;;;;4976009;28;20212;-37
2021/01/31 10:32:53;;;;;;;3.80;3.35;;;8.00;99.90;;;;;;4982664;28;20294;-37
2021/01/31 10:35:30;;;;;;;3.95;3.50;;;8.00;99.90;;;;;;4979041;28;20280;-36
2021/01/31 10:38:17;;;;;;;5.15;3.30;;;8.00;99.90;;;;;;4971988;28;20219;-37
2021/01/31 10:40:47;;;;;;;4.75;3.45;;;7.90;99.90;;;;;;4972545;28;20629;-37
2021/01/31 10:43:20;;;;;;;3.17;2.97;;;8.00;99.90;;;;;;4982658;28;20655;-37
2021/01/31 10:45:51;;;;;;;3.95;3.65;;;8.00;99.90;;;;;;4985344;28;20256;-37
2021/01/31 10:48:21;;;;;;;3.60;3.30;;;8.00;99.90;;;;;;4986694;28;20606;-37
2021/01/31 10:50:51;;;;;;;3.63;3.33;;;8.00;99.90;;;;;;4977516;28;20208;-37
2021/01/31 10:53:21;;;;;;;4.00;3.03;;;8.00;99.90;;;;;;4986294;28;20232;-37
2021/01/31 10:55:51;;;;;;;4.25;3.10;;;8.10;99.90;;;;;;4985626;28;20212;-36
2021/01/31 10:58:21;;;;;;;3.72;3.42;;;8.10;99.90;;;;;;4986521;28;20208;-37
2021/01/31 11:00:53;;;;;;;4.75;4.10;;;8.20;99.90;;;;;;4985503;28;20215;-36
2021/01/31 11:03:23;;;;;;;3.60;3.30;;;8.10;99.90;;;;;;4977884;28;20208;-37
2021/01/31 11:05:53;;;;;;;3.80;3.50;;;8.10;99.90;;;;;;4983283;28;20579;-36
2021/01/31 11:08:24;;;;;;;3.30;3.05;;;8.10;99.90;;;;;;4986293;28;20201;-36
2021/01/31 11:10:54;;;;;;;2.92;2.72;;;8.10;99.90;;;;;;4981871;28;20279;-37
2021/01/31 11:13:25;;;;;;;4.18;3.88;;;8.20;99.90;;;;;;4982577;28;20630;-36
2021/01/31 11:15:56;;;;;;;3.42;3.20;;;8.20;99.90;;;;;;4986483;28;20209;-36
2021/01/31 11:18:26;;;;;;;2.95;2.75;;;8.20;99.90;;;;;;4983655;28;20209;-36
2021/01/31 11:20:56;;;;;;;3.20;2.90;;;8.20;99.90;;;;;;4986583;28;20212;-36
2021/01/31 11:23:27;;;;;;;3.00;2.80;;;8.10;99.90;;;;;;4973398;28;20208;-36
2021/01/31 11:25:57;;;;;;;2.70;2.50;;;8.20;99.90;;;;;;4985155;28;20220;-36
2021/01/31 11:28:27;;;;;;;2.97;2.75;;;8.10;99.90;;;;;;4986190;28;20197;-36
2021/01/31 11:30:58;;;;;;;2.83;2.63;;;8.10;99.90;;;;;;4982154;28;20244;-35
2021/01/31 11:33:28;;;;;;;2.90;2.70;;;8.10;99.90;;;;;;4980766;28;20224;-35
2021/01/31 11:35:58;;;;;;;2.85;2.65;;;8.10;99.90;;;;;;4986115;28;20212;-36
2021/01/31 11:38:28;;;;;;;2.35;2.15;;;8.20;99.90;;;;;;4977458;28;20212;-36
2021/01/31 11:40:58;;;;;;;2.20;2.00;;;8.20;99.90;;;;;;4971245;28;20315;-36
2021/01/31 11:43:28;;;;;;;2.55;2.35;;;8.20;99.90;;;;;;4979871;28;20197;-35
2021/01/31 11:45:59;;;;;;;2.65;2.45;;;8.30;99.90;;;;;;4985728;28;20259;-35
2021/01/31 11:48:29;;;;;;;2.63;2.42;;;8.30;99.90;;;;;;4985556;28;20271;-36
2021/01/31 11:50:59;;;;;;;2.97;2.30;;;8.30;99.90;;;;;;4984614;28;20211;-36
2021/01/31 11:53:29;;;;;;;2.35;2.17;;;8.40;99.90;;;;;;4985146;28;20228;-36
2021/01/31 11:55:59;;;;;;;2.67;2.10;;;8.40;99.90;;;;;;4985363;28;20204;-35
2021/01/31 11:58:29;;;;;;;2.10;2.00;;;8.50;99.90;;;;;;4983578;28;20510;-37
2021/01/31 12:01:00;;;;;;;2.00;1.80;;;8.50;99.90;;;;;;4977198;28;20205;-36
2021/01/31 12:03:31;;;;;;;2.33;2.13;;;8.50;99.90;;;;;;4970729;28;20259;-36
2021/01/31 12:06:01;;;;;;;1.92;1.83;;;8.50;99.90;;;;;;4985533;28;20227;-36
2021/01/31 12:08:31;;;;;;;1.73;1.63;;;8.50;99.90;;;;;;4984964;28;20292;-36
2021/01/31 12:11:01;;;;;;;2.25;2.05;;;8.50;99.90;;;;;;4976331;28;20237;-36
2021/01/31 12:13:32;;;;;;;1.98;1.60;;;8.40;99.90;;;;;;4968741;28;20598;-37
2021/01/31 12:16:03;;;;;;;2.28;2.08;;;8.40;99.90;;;;;;4970693;28;20698;-37
2021/01/31 12:18:33;;;;;;;2.33;2.13;;;8.40;99.90;;;;;;4966887;28;20244;-36
2021/01/31 12:21:03;;;;;;;2.47;2.28;;;8.50;99.90;;;;;;4982246;28;20238;-36
2021/01/31 12:23:33;;;;;;;2.42;2.28;;;8.50;99.90;;;;;;4975441;28;20202;-37
2021/01/31 12:26:03;;;;;;;2.83;2.20;;;8.50;99.90;;;;;;4983512;28;20655;-37
2021/01/31 12:28:33;;;;;;;1.98;1.88;;;8.50;99.90;;;;;;4979278;28;20714;-36
2021/01/31 12:31:05;;;;;;;1.98;1.88;;;8.60;99.90;;;;;;4973952;28;20256;-37
2021/01/31 12:33:35;;;;;;;1.98;1.77;;;8.60;99.90;;;;;;4969075;28;20287;-37
2021/01/31 12:36:05;;;;;;;1.85;1.75;;;8.60;99.90;;;;;;4983735;28;20208;-37
2021/01/31 12:38:35;;;;;;;1.70;1.60;;;8.60;99.90;;;;;;4969400;28;20201;-36
2021/01/31 12:41:05;;;;;;;2.08;1.85;;;8.50;99.90;;;;;;4974222;28;20216;-36
2021/01/31 12:43:35;;;;;;;3.08;1.85;;;8.60;99.90;;;;;;4975768;28;20263;-36
2021/01/31 12:46:25;;;;;;;1.80;1.70;;;8.60;99.90;;;;;;4969978;28;20209;-36
2021/01/31 12:48:55;;;;;;;1.70;1.60;;;8.60;99.90;;;;;;4965515;28;20623;-35
2021/01/31 12:51:27;;;;;;;1.80;1.70;;;8.50;99.90;;;;;;4965755;28;20205;-36
2021/01/31 12:53:57;;;;;;;2.83;2.53;;;8.50;99.90;;;;;;4967206;28;20288;-35
2021/01/31 12:56:27;;;;;;;1.83;1.73;;;8.50;99.90;;;;;;4972968;28;20205;-36
2021/01/31 12:58:57;;;;;;;2.00;1.75;;;8.50;99.90;;;;;;4973780;28;20216;-36
2021/01/31 13:01:32;;;;;;;1.65;1.55;;;8.50;99.90;;;;;;4978041;28;20272;-36
2021/01/31 13:04:03;;;;;;;4.03;1.42;;;8.60;99.90;;;;;;4972867;28;20199;-36
2021/01/31 13:06:32;;;;;;;2.20;1.70;;;8.60;99.90;;;;;;4979548;28;20263;-36
2021/01/31 13:09:03;;;;;;;2.00;1.80;;;8.60;99.90;;;;;;4974071;28;20215;-36
2021/01/31 13:11:33;;;;;;;1.30;1.20;;;8.60;99.90;;;;;;4974894;28;20205;-36
2021/01/31 13:14:03;;;;;;;1.63;1.52;;;8.60;99.90;;;;;;4982548;28;20741;-36
2021/01/31 13:16:34;;;;;;;2.88;1.50;;;8.60;99.90;;;;;;4978458;28;20209;-36
2021/01/31 13:19:05;;;;;;;1.08;1.08;;;8.70;99.90;;;;;;4984059;28;20272;-36
2021/01/31 13:21:35;;;;;;;2.33;1.35;;;8.60;99.90;;;;;;4979723;28;20202;-36
2021/01/31 13:24:06;;;;;;;3.40;1.52;;;8.60;99.90;;;;;;4980240;28;20205;-36
2021/01/31 13:26:36;;;;;;;1.95;1.48;;;8.60;99.90;;;;;;4983539;28;20259;-36
2021/01/31 13:29:06;;;;;;;1.17;1.05;;;8.60;99.90;;;;;;4980636;28;20213;-36
2021/01/31 13:31:38;;;;;;;1.45;1.17;;;8.60;99.90;;;;;;4968407;28;20687;-35
2021/01/31 13:34:09;;;;;;;1.30;1.20;;;8.50;99.90;;;;;;4981108;28;20302;-36
2021/01/31 13:36:39;;;;;;;1.70;1.60;;;8.50;99.90;;;;;;4970611;28;20204;-36
2021/01/31 13:39:10;;;;;;;1.83;1.60;;;8.40;99.90;;;;;;4984042;28;20215;-36
2021/01/31 13:41:40;;;;;;;1.50;1.40;;;8.40;99.90;;;;;;4981742;28;20235;-37
2021/01/31 13:44:10;;;;;;;1.80;1.70;;;8.40;99.90;;;;;;4983652;28;20205;-36
2021/01/31 13:46:41;;;;;;;1.10;1.00;;;8.40;99.90;;;;;;4982934;28;20576;-36